Time;durP1;ratioP1;P1;durP2;ratioP2;P2;SDS_P1;SDS_P2;PMS_P1;PMS_P2;Temp;Humidity;BMP_temperature;BMP_pressure;BME280_temperature;BME280_humidity;BME280_pressure;Samples;Min_cycle;Max_cycle;Signal;HPM_P1;HPM_P2
2022/10/17 00:00:59;;;;;;;2.90;2.08;;;;;;;13.78;81.78;101565.09;2059676;28;20046;-69
2022/10/17 00:02:06;;;;;;;4.00;2.10;;;;;;;13.77;81.58;101569.66;2066607;28;20041;-68
2022/10/17 00:03:08;;;;;;;5.65;2.03;;;;;;;13.76;81.68;101572.66;2074194;28;20037;-68
2022/10/17 00:04:13;;;;;;;2.78;2.10;;;;;;;13.77;81.79;101576.97;2073894;28;20049;-68
2022/10/17 00:05:19;;;;;;;4.07;2.15;;;;;;;13.73;81.77;101571.31;2065344;28;20046;-68
2022/10/17 00:06:29;;;;;;;2.70;2.13;;;;;;;13.70;81.49;101568.34;2059902;28;20046;-68
2022/10/17 00:07:33;;;;;;;;;;;;;;;13.70;81.81;101571.03;2067348;28;20046;-68
2022/10/17 00:08:39;;;;;;;4.55;2.15;;;;;;;13.70;81.79;101579.16;2065054;28;20310;-68
2022/10/17 00:09:43;;;;;;;3.35;2.30;;;;;;;13.68;81.70;101566.72;2063103;28;20050;-68
2022/10/17 00:11:01;;;;;;;3.67;2.20;;;;;;;13.68;81.72;101566.72;2073435;28;20402;-68
2022/10/17 00:12:04;;;;;;;4.55;2.22;;;;;;;13.70;81.93;101569.16;2070979;28;20032;-68
2022/10/17 00:13:10;;;;;;;7.90;1.95;;;;;;;13.67;81.53;101570.50;2057347;28;20451;-68
2022/10/17 00:14:12;;;;;;;3.78;1.90;;;;;;;13.68;81.88;101572.13;2057175;28;20396;-68
2022/10/17 00:15:18;;;;;;;5.10;2.00;;;;;;;13.68;81.53;101572.13;2073027;28;20050;-68
2022/10/17 00:16:29;;;;;;;3.67;1.88;;;;;;;13.68;81.58;101572.13;2071273;28;20081;-68
2022/10/17 00:17:35;;;;;;;3.20;2.00;;;;;;;13.67;81.72;101584.00;2050257;28;20043;-68
2022/10/17 00:18:37;;;;;;;7.07;2.53;;;;;;;13.68;81.55;101582.13;2049401;28;20042;-68
2022/10/17 00:19:44;;;;;;;3.17;1.98;;;;;;;13.65;81.88;101586.19;2064608;28;20053;-68
2022/10/17 00:20:50;;;;;;;3.55;1.95;;;;;;;13.64;81.72;101586.44;2071639;28;20050;-68
2022/10/17 00:21:52;;;;;;;4.18;2.38;;;;;;;13.63;81.40;101584.84;2065121;28;20530;-69
2022/10/17 00:22:57;;;;;;;3.33;2.10;;;;;;;13.60;81.56;101586.19;2065619;28;20040;-69
2022/10/17 00:24:00;;;;;;;7.28;2.22;;;;;;;13.57;81.28;101572.44;2066291;28;20030;-68
2022/10/17 00:25:06;;;;;;;4.25;2.20;;;;;;;13.55;81.39;101575.38;2069177;28;20061;-68
2022/10/17 00:26:11;;;;;;;4.57;2.25;;;;;;;13.52;81.57;101578.63;2073903;28;20034;-68
2022/10/17 00:27:18;;;;;;;5.80;2.22;;;;;;;13.52;81.70;101577.84;2065958;28;20038;-68
2022/10/17 00:28:21;;;;;;;4.53;2.25;;;;;;;13.50;81.59;101570.00;2065886;28;20061;-68
2022/10/17 00:29:26;;;;;;;4.93;2.20;;;;;;;13.49;81.56;101573.78;2058024;28;20467;-68
2022/10/17 00:30:33;;;;;;;6.53;2.30;;;;;;;13.51;81.72;101576.22;2058617;28;20459;-68
2022/10/17 00:31:39;;;;;;;3.05;2.20;;;;;;;13.51;82.02;101577.03;2066102;28;20459;-68
2022/10/17 00:32:43;;;;;;;8.25;2.13;;;;;;;13.52;81.73;101584.03;2065717;28;20426;-68
2022/10/17 00:33:46;;;;;;;2.97;1.98;;;;;;;13.50;81.67;101569.22;2057756;28;20038;-68
2022/10/17 00:34:53;;;;;;;3.17;2.00;;;;;;;13.51;82.00;101578.91;2074330;28;20529;-69
2022/10/17 00:36:24;;;;;;;4.43;1.90;;;;;;;13.51;81.91;101579.72;2081417;28;20044;-67
2022/10/17 00:37:31;;;;;;;3.33;2.20;;;;;;;13.52;81.89;101577.84;2064155;28;20050;-68
2022/10/17 00:38:33;;;;;;;7.18;2.22;;;;;;;13.51;81.55;101579.72;2057201;28;20042;-68
2022/10/17 00:39:35;;;;;;;3.65;2.28;;;;;;;13.51;81.52;101576.22;2064450;28;20034;-68
2022/10/17 00:40:38;;;;;;;7.43;2.15;;;;;;;13.48;81.78;101577.56;2063472;28;20042;-68
2022/10/17 00:41:40;;;;;;;6.85;2.40;;;;;;;13.47;81.60;101585.97;2064344;28;20038;-68
2022/10/17 00:42:44;;;;;;;5.28;2.20;;;;;;;13.45;81.44;101578.91;2056775;28;20050;-68
2022/10/17 00:44:01;;;;;;;4.68;2.10;;;;;;;13.46;81.47;101582.44;2056344;28;20047;-68
2022/10/17 00:45:19;;;;;;;4.25;1.90;;;;;;;13.45;81.53;101580.81;2063037;28;20044;-68
2022/10/17 00:46:25;;;;;;;3.58;2.00;;;;;;;13.44;81.68;101585.41;2072681;28;20069;-68
2022/10/17 00:47:31;;;;;;;3.15;2.03;;;;;;;13.41;81.64;101579.75;2056325;28;20046;-68
2022/10/17 00:48:34;;;;;;;4.78;2.20;;;;;;;13.43;81.82;101580.28;2058537;28;20035;-68
2022/10/17 00:49:37;;;;;;;4.35;2.03;;;;;;;13.43;81.52;101586.50;2065158;28;20050;-69
2022/10/17 00:50:45;;;;;;;5.50;2.00;;;;;;;13.44;81.72;101588.13;2065918;28;20042;-69
2022/10/17 00:51:55;;;;;;;3.13;1.70;;;;;;;13.44;81.62;101592.72;2066443;28;20045;-68
2022/10/17 00:53:01;;;;;;;4.70;2.17;;;;;;;13.45;81.42;101588.91;2066856;28;20061;-68
2022/10/17 00:54:07;;;;;;;3.22;2.22;;;;;;;13.45;81.59;101591.63;2065939;28;20426;-68
2022/10/17 00:55:31;;;;;;;6.18;2.03;;;;;;;13.43;81.44;101586.50;2064551;28;20054;-68
2022/10/17 00:56:37;;;;;;;6.32;2.60;;;;;;;13.43;81.33;101585.69;2068160;28;20054;-68
2022/10/17 00:57:45;;;;;;;3.63;2.28;;;;;;;13.43;81.74;101591.09;2057611;28;20042;-68
2022/10/17 00:58:50;;;;;;;8.45;2.40;;;;;;;13.41;81.44;101588.66;2067387;28;20038;-69
2022/10/17 00:59:57;;;;;;;4.82;2.40;;;;;;;13.39;81.11;101588.09;2064479;28;20034;-69
2022/10/17 01:01:01;;;;;;;3.70;2.15;;;;;;;13.39;81.36;101598.09;2050513;28;20039;-68
2022/10/17 01:02:08;;;;;;;4.78;2.08;;;;;;;13.37;81.26;101592.19;2057311;28;20431;-68
2022/10/17 01:03:10;;;;;;;5.60;2.20;;;;;;;13.36;81.33;101593.25;2057746;28;20042;-68
2022/10/17 01:04:13;;;;;;;5.40;2.00;;;;;;;13.33;81.41;101589.19;2049026;28;20078;-68
2022/10/17 01:05:17;;;;;;;4.57;2.10;;;;;;;13.31;81.37;101590.56;2064462;28;20053;-68
2022/10/17 01:06:20;;;;;;;4.35;2.00;;;;;;;13.32;81.19;101590.28;2072031;28;20044;-68
2022/10/17 01:07:25;;;;;;;4.80;2.38;;;;;;;13.32;81.49;101593.00;2064198;28;20046;-68
2022/10/17 01:08:29;;;;;;;4.95;2.40;;;;;;;13.31;81.57;101590.56;2064449;28;20069;-68
2022/10/17 01:09:32;;;;;;;5.72;2.17;;;;;;;13.29;81.62;101590.03;2071951;28;20057;-68
2022/10/17 01:10:41;;;;;;;6.00;2.60;;;;;;;13.30;81.55;101599.75;2063590;28;20507;-68
2022/10/17 01:11:53;;;;;;;5.75;2.17;;;;;;;13.30;81.63;101594.34;2072258;28;20045;-68
2022/10/17 01:13:12;;;;;;;3.72;2.20;;;;;;;13.33;81.88;101604.59;2063986;28;20539;-69
2022/10/17 01:14:32;;;;;;;3.88;1.90;;;;;;;13.29;81.92;101587.31;2058709;28;20042;-69
2022/10/17 01:16:09;;;;;;;4.43;2.20;;;;;;;13.32;81.98;101589.47;2065829;28;20050;-68
2022/10/17 01:17:29;;;;;;;4.53;1.90;;;;;;;13.33;82.31;101591.09;2072155;28;20521;-69
2022/10/17 01:18:36;;;;;;;4.18;1.92;;;;;;;13.34;81.91;101593.53;2064461;28;20058;-68
2022/10/17 01:20:01;;;;;;;6.05;2.00;;;;;;;13.36;82.23;101595.94;2050102;28;20047;-68
2022/10/17 01:21:12;;;;;;;3.58;1.90;;;;;;;13.35;81.78;101607.84;2063753;28;20032;-69
2022/10/17 01:22:58;;;;;;;4.55;2.05;;;;;;;13.30;81.78;101611.34;2072713;28;20049;-68
2022/10/17 01:24:18;;;;;;;7.60;1.95;;;;;;;13.27;81.86;101611.88;2061539;28;20041;-68
2022/10/17 01:25:56;;;;;;;5.78;2.05;;;;;;;13.26;82.07;101609.47;2072164;28;20064;-68
2022/10/17 01:27:48;;;;;;;5.18;2.08;;;;;;;13.25;81.99;101615.97;2070417;28;20053;-68
2022/10/17 01:29:14;;;;;;;4.40;2.20;;;;;;;13.20;82.06;101620.22;2073002;28;20038;-68
2022/10/17 01:30:27;;;;;;;4.72;1.98;;;;;;;13.20;82.12;101627.53;2070159;28;20065;-68
2022/10/17 01:31:50;;;;;;;13.45;2.35;;;;;;;13.21;82.15;101621.06;2077264;28;20433;-68
2022/10/17 01:33:08;;;;;;;3.22;2.00;;;;;;;13.20;82.08;101614.81;2069369;28;20037;-69
2022/10/17 01:34:38;;;;;;;4.03;2.17;;;;;;;13.20;82.22;101614.81;2060122;28;20049;-67
2022/10/17 01:36:07;;;;;;;4.95;2.28;;;;;;;13.19;82.11;101618.63;2067904;28;20034;-68
2022/10/17 01:37:17;;;;;;;2.83;1.90;;;;;;;13.19;82.33;101624.03;2064105;28;20054;-68
2022/10/17 01:38:38;;;;;;;;;;;;;;;13.19;82.05;101623.22;2065687;28;20049;-68
2022/10/17 01:39:58;;;;;;;3.70;2.10;;;;;;;13.16;81.74;101616.47;2063914;28;20597;-68
2022/10/17 01:41:16;;;;;;;3.30;2.22;;;;;;;13.16;81.84;101623.75;2059242;28;20042;-69
2022/10/17 01:42:30;;;;;;;3.90;1.77;;;;;;;13.16;81.97;101624.56;2058303;28;20038;-68
2022/10/17 01:43:48;;;;;;;2.53;2.00;;;;;;;13.17;81.83;101625.38;2055995;28;20038;-69
2022/10/17 01:44:59;;;;;;;3.97;2.30;;;;;;;13.17;82.29;101638.88;2054187;28;20057;-69
2022/10/17 01:46:39;;;;;;;6.97;2.47;;;;;;;13.15;81.87;101633.75;2065274;28;20038;-68
2022/10/17 01:47:49;;;;;;;5.45;2.00;;;;;;;13.15;81.86;101631.06;2029379;29;20687;-68
2022/10/17 01:48:59;;;;;;;4.13;2.00;;;;;;;13.12;81.85;101634.28;2033009;29;20457;-68
2022/10/17 01:50:27;;;;;;;3.50;2.00;;;;;;;13.10;81.72;101631.03;2045943;28;20046;-68
2022/10/17 01:51:52;;;;;;;4.50;2.20;;;;;;;13.09;81.97;101640.22;2068922;28;20453;-69
2022/10/17 01:53:00;;;;;;;5.60;2.05;;;;;;;13.10;81.80;101643.72;2064881;28;20057;-68
2022/10/17 01:54:15;;;;;;;3.67;2.00;;;;;;;13.10;82.02;101638.31;2068010;28;20039;-68
2022/10/17 01:55:59;;;;;;;4.28;1.92;;;;;;;13.08;81.92;101644.00;2065198;28;20038;-68
2022/10/17 01:57:23;;;;;;;6.32;1.83;;;;;;;13.08;81.98;101641.31;2062468;28;20240;-69
2022/10/17 01:58:41;;;;;;;4.45;2.05;;;;;;;13.07;81.85;101642.38;2067679;28;20042;-69
2022/10/17 01:59:50;;;;;;;5.55;2.15;;;;;;;13.09;81.88;101644.81;2059082;28;20039;-69
2022/10/17 02:01:00;;;;;;;4.57;1.98;;;;;;;13.05;81.80;101636.44;2059904;28;20039;-69
2022/10/17 02:02:08;;;;;;;4.28;2.10;;;;;;;13.05;81.76;101649.13;2066087;28;20514;-68
2022/10/17 02:03:16;;;;;;;3.75;1.80;;;;;;;13.02;81.96;101655.88;2064888;28;20048;-69
2022/10/17 02:04:19;;;;;;;6.63;2.13;;;;;;;13.00;81.71;101658.03;2067198;28;20042;-69
2022/10/17 02:05:43;;;;;;;7.57;2.00;;;;;;;13.00;81.98;101658.03;2064283;28;20634;-68
2022/10/17 02:07:07;;;;;;;2.90;1.77;;;;;;;12.98;81.54;101657.47;2061947;28;20038;-68
2022/10/17 02:08:09;;;;;;;3.63;2.33;;;;;;;12.97;81.73;101653.97;2058691;28;20038;-68
2022/10/17 02:09:19;;;;;;;6.10;2.10;;;;;;;12.97;81.72;101653.16;2063457;28;20592;-68
2022/10/17 02:11:03;;;;;;;3.88;1.90;;;;;;;12.95;81.85;101650.72;2055830;28;20046;-68
2022/10/17 02:12:26;;;;;;;3.70;2.00;;;;;;;12.95;81.46;101652.59;2074451;28;20025;-68
2022/10/17 02:13:56;;;;;;;4.53;2.25;;;;;;;12.94;81.58;101659.91;2060518;28;20047;-68
2022/10/17 02:15:16;;;;;;;5.57;2.03;;;;;;;12.92;81.80;101653.16;2066327;28;20041;-68
2022/10/17 02:16:32;;;;;;;3.35;1.98;;;;;;;12.90;81.55;101658.81;2071418;28;20053;-68
2022/10/17 02:18:00;;;;;;;2.50;1.70;;;;;;;12.91;81.80;101662.31;2058146;28;20035;-68
2022/10/17 02:19:21;;;;;;;7.70;2.08;;;;;;;12.92;81.89;101661.25;2062936;28;20054;-69
2022/10/17 02:20:39;;;;;;;4.63;2.25;;;;;;;12.91;81.64;101662.31;2075191;28;20540;-68
2022/10/17 02:21:45;;;;;;;5.38;2.05;;;;;;;12.91;81.63;101663.13;2065142;28;20038;-69
2022/10/17 02:22:56;;;;;;;3.40;2.00;;;;;;;12.91;81.62;101662.31;2058290;28;20050;-68
2022/10/17 02:24:15;;;;;;;9.85;2.28;;;;;;;12.90;81.62;101658.81;2065940;28;20046;-69
2022/10/17 02:25:53;;;;;;;8.80;2.10;;;;;;;12.91;81.59;101654.22;2051188;28;20043;-68
2022/10/17 02:27:33;;;;;;;7.70;2.20;;;;;;;12.92;81.55;101670.16;2055768;28;20293;-69
2022/10/17 02:28:43;;;;;;;8.05;2.00;;;;;;;12.94;81.53;101669.91;2056299;28;20041;-68
2022/10/17 02:29:59;;;;;;;5.07;2.20;;;;;;;12.92;81.43;101664.75;2068803;28;20053;-68
2022/10/17 02:31:12;;;;;;;5.82;2.03;;;;;;;12.91;81.40;101665.84;2071822;28;20037;-68
2022/10/17 02:32:42;;;;;;;8.38;2.13;;;;;;;12.91;81.29;101665.03;2060729;28;20525;-68
2022/10/17 02:34:29;;;;;;;5.22;1.52;;;;;;;12.90;81.16;101668.81;2065884;28;20517;-68
2022/10/17 02:35:37;;;;;;;5.38;2.03;;;;;;;12.90;81.19;101674.22;2064989;28;20050;-68
2022/10/17 02:36:48;;;;;;;6.82;2.00;;;;;;;12.90;81.21;101687.72;2066334;28;20054;-68
2022/10/17 02:38:11;;;;;;;5.88;1.70;;;;;;;12.91;81.11;101681.22;2066895;28;20062;-68
2022/10/17 02:39:38;;;;;;;5.70;1.85;;;;;;;12.90;81.30;101687.72;2068156;28;20061;-68
2022/10/17 02:40:42;;;;;;;4.93;2.08;;;;;;;12.91;81.24;101697.41;2068291;28;20046;-68
2022/10/17 02:41:47;;;;;;;5.35;2.00;;;;;;;12.90;81.13;101695.81;2056932;28;20050;-68
2022/10/17 02:43:13;;;;;;;6.05;2.25;;;;;;;12.89;81.21;101688.75;2065969;28;20061;-67
2022/10/17 02:44:34;;;;;;;6.95;1.98;;;;;;;12.89;81.03;101702.25;2073542;28;20038;-66
2022/10/17 02:45:38;;;;;;;5.88;2.17;;;;;;;12.85;81.07;101685.78;2076000;28;20041;-67
2022/10/17 02:46:42;;;;;;;8.98;2.15;;;;;;;12.85;81.06;101693.09;2065352;28;20042;-69
2022/10/17 02:48:02;;;;;;;3.28;1.80;;;;;;;12.85;81.11;101693.09;2065583;28;20121;-67
2022/10/17 02:49:31;;;;;;;6.20;2.17;;;;;;;12.80;80.94;101688.50;2051721;28;20031;-67
2022/10/17 02:51:14;;;;;;;3.95;2.05;;;;;;;12.75;80.96;101694.66;2064685;28;20069;-67
2022/10/17 02:52:38;;;;;;;4.13;2.03;;;;;;;12.73;80.93;101699.50;2063344;28;20046;-67
2022/10/17 02:53:42;;;;;;;5.03;2.10;;;;;;;12.71;81.11;101688.19;2064735;28;20045;-67
2022/10/17 02:55:18;;;;;;;3.53;2.00;;;;;;;12.70;81.05;101691.97;2058698;28;20078;-67
2022/10/17 02:56:24;;;;;;;4.40;2.08;;;;;;;12.70;80.92;101699.22;2062018;28;20053;-67
2022/10/17 02:57:43;;;;;;;5.63;1.83;;;;;;;12.67;81.32;101691.66;2059243;28;20047;-67
2022/10/17 02:58:50;;;;;;;3.63;2.28;;;;;;;12.69;81.32;101694.91;2068417;28;20039;-67
2022/10/17 02:59:57;;;;;;;7.70;2.20;;;;;;;12.70;81.29;101701.94;2058297;28;20043;-67
2022/10/17 03:01:01;;;;;;;3.70;2.22;;;;;;;12.69;81.35;101701.13;2058617;28;20050;-67
2022/10/17 03:02:08;;;;;;;3.20;1.75;;;;;;;12.70;81.37;101700.06;2058714;28;20041;-67
2022/10/17 03:03:27;;;;;;;8.38;2.55;;;;;;;12.73;81.38;101704.91;2058837;28;20054;-67
2022/10/17 03:04:30;;;;;;;6.70;2.08;;;;;;;12.73;81.31;101702.22;2068672;28;20061;-67
2022/10/17 03:05:35;;;;;;;6.88;2.20;;;;;;;12.73;81.36;101707.59;2064762;28;20046;-67
2022/10/17 03:06:38;;;;;;;3.97;2.00;;;;;;;12.73;81.40;101704.91;2073984;28;20038;-67
2022/10/17 03:07:40;;;;;;;5.78;2.15;;;;;;;12.71;81.12;101707.09;2072838;28;20109;-67
2022/10/17 03:08:45;;;;;;;2.92;2.00;;;;;;;12.71;81.16;101703.56;2057258;28;20050;-67
2022/10/17 03:09:51;;;;;;;4.97;2.03;;;;;;;12.69;81.09;101706.53;2064583;28;20054;-68
2022/10/17 03:10:56;;;;;;;4.63;2.10;;;;;;;12.63;80.86;101699.47;2064949;28;20045;-67
2022/10/17 03:12:02;;;;;;;3.22;2.15;;;;;;;12.62;80.94;101708.66;2072724;28;20061;-68
2022/10/17 03:13:05;;;;;;;5.75;2.25;;;;;;;12.62;80.95;101703.25;2072693;28;20056;-68
2022/10/17 03:14:11;;;;;;;5.53;2.15;;;;;;;12.63;80.92;101702.19;2065096;28;20066;-68
2022/10/17 03:15:20;;;;;;;4.40;2.22;;;;;;;12.63;80.88;101707.56;2065892;28;20060;-68
2022/10/17 03:16:24;;;;;;;5.28;2.30;;;;;;;12.64;80.98;101703.81;2057361;28;20050;-68
2022/10/17 03:17:27;;;;;;;5.93;2.17;;;;;;;12.66;80.99;101712.44;2073194;28;20058;-68
2022/10/17 03:18:30;;;;;;;3.33;2.13;;;;;;;12.64;80.98;101714.63;2072135;28;20084;-68
2022/10/17 03:19:38;;;;;;;3.58;2.10;;;;;;;12.64;80.95;101714.63;2065875;28;20370;-68
2022/10/17 03:20:45;;;;;;;3.95;2.00;;;;;;;12.64;80.70;101714.63;2073237;28;20045;-68
2022/10/17 03:21:50;;;;;;;4.57;2.17;;;;;;;12.64;80.84;101711.91;2072682;28;20052;-68
2022/10/17 03:22:53;;;;;;;3.20;1.85;;;;;;;12.63;80.81;101718.38;2073035;28;20042;-67
2022/10/17 03:23:57;;;;;;;6.85;1.90;;;;;;;12.62;80.92;101716.75;2057379;28;20034;-68
2022/10/17 03:25:04;;;;;;;5.72;2.00;;;;;;;12.60;80.91;101718.91;2058206;28;20058;-67
2022/10/17 03:26:09;;;;;;;6.88;1.95;;;;;;;12.60;80.93;101724.28;2067765;28;20030;-68
2022/10/17 03:27:11;;;;;;;2.90;1.75;;;;;;;12.60;80.94;101724.28;2072730;28;20042;-67
2022/10/17 03:28:14;;;;;;;3.47;1.90;;;;;;;12.61;81.01;101719.69;2073696;28;20417;-67
2022/10/17 03:29:16;;;;;;;5.07;2.08;;;;;;;12.62;80.89;101715.94;2066041;28;20038;-67
2022/10/17 03:30:22;;;;;;;6.68;1.88;;;;;;;12.61;81.17;101719.69;2059306;28;20035;-67
2022/10/17 03:31:27;;;;;;;6.80;2.40;;;;;;;12.61;81.00;101717.84;2066770;28;20034;-67
2022/10/17 03:32:37;;;;;;;8.90;1.98;;;;;;;12.60;80.90;101710.81;2074428;28;20426;-67
2022/10/17 03:33:42;;;;;;;5.43;2.55;;;;;;;12.62;80.93;101716.75;2066839;28;20034;-67
2022/10/17 03:34:44;;;;;;;7.90;2.05;;;;;;;12.62;81.10;101715.94;2050433;28;20035;-67
2022/10/17 03:35:49;;;;;;;5.70;1.85;;;;;;;12.61;80.94;101715.16;2051488;28;20058;-67
2022/10/17 03:36:55;;;;;;;4.15;1.80;;;;;;;12.61;80.80;101723.25;2058388;28;20046;-67
2022/10/17 03:38:02;;;;;;;3.60;1.92;;;;;;;12.62;80.94;101727.53;2058670;28;20038;-67
2022/10/17 03:39:07;;;;;;;3.20;1.80;;;;;;;12.60;80.99;101724.28;2050795;28;20035;-66
2022/10/17 03:40:11;;;;;;;4.05;1.83;;;;;;;12.60;80.89;101724.28;2075084;28;20033;-67
2022/10/17 03:41:15;;;;;;;3.78;1.67;;;;;;;12.60;81.09;101724.28;2072888;28;20038;-67
2022/10/17 03:42:19;;;;;;;6.05;1.95;;;;;;;12.61;81.03;101720.53;2072943;28;20046;-67
2022/10/17 03:43:25;;;;;;;4.13;1.85;;;;;;;12.61;81.10;101723.25;2073123;28;20490;-67
2022/10/17 03:44:28;;;;;;;3.83;1.55;;;;;;;12.59;81.01;101722.69;2073705;28;20037;-67
2022/10/17 03:45:31;;;;;;;5.13;1.83;;;;;;;12.59;81.10;101729.97;2068197;28;20490;-67
2022/10/17 03:46:33;;;;;;;4.20;2.20;;;;;;;12.56;81.05;101723.19;2066666;28;20030;-67
2022/10/17 03:47:41;;;;;;;2.53;1.80;;;;;;;12.57;81.18;101724.81;2067432;28;20046;-67
2022/10/17 03:48:47;;;;;;;4.97;2.15;;;;;;;12.58;81.14;101728.31;2066583;28;20046;-67
2022/10/17 03:49:52;;;;;;;6.43;1.92;;;;;;;12.58;81.31;101726.47;2068992;28;20038;-67
2022/10/17 03:51:06;;;;;;;3.80;1.90;;;;;;;12.58;81.21;101723.75;2059675;28;20042;-67
2022/10/17 03:52:12;;;;;;;4.47;1.63;;;;;;;12.57;81.37;101722.13;2071903;28;20332;-67
2022/10/17 03:53:20;;;;;;;6.97;1.98;;;;;;;12.58;81.37;101718.38;2070124;28;20034;-67
2022/10/17 03:54:24;;;;;;;4.38;1.80;;;;;;;12.60;81.51;101724.28;2066655;28;20045;-67
2022/10/17 03:55:31;;;;;;;5.43;1.95;;;;;;;12.62;81.31;101721.34;2082819;28;20654;-68
2022/10/17 03:56:36;;;;;;;3.70;1.67;;;;;;;12.63;81.47;101721.06;2071368;28;20285;-67
2022/10/17 03:57:43;;;;;;;6.75;2.00;;;;;;;12.64;81.65;101720.00;2067859;28;20030;-68
2022/10/17 03:58:49;;;;;;;15.07;2.08;;;;;;;12.64;81.44;101714.63;2073528;28;20046;-69
2022/10/17 03:59:51;;;;;;;5.45;1.92;;;;;;;12.65;81.36;101723.50;2066318;28;20045;-69
2022/10/17 04:00:56;;;;;;;3.47;1.98;;;;;;;12.65;81.36;101724.31;2065848;28;20053;-68
2022/10/17 04:01:59;;;;;;;6.07;2.15;;;;;;;12.66;81.44;101733.22;2066148;28;20378;-68
2022/10/17 04:03:04;;;;;;;5.05;1.65;;;;;;;12.66;81.54;101727.84;2065583;28;20047;-69
2022/10/17 04:04:09;;;;;;;4.28;1.70;;;;;;;12.65;81.42;101735.13;2064623;28;20042;-68
2022/10/17 04:05:15;;;;;;;4.40;1.70;;;;;;;12.66;81.41;101734.03;2055155;28;20030;-68
2022/10/17 04:06:20;;;;;;;6.07;1.80;;;;;;;12.66;81.42;101744.03;2074226;28;20045;-69
2022/10/17 04:07:27;;;;;;;8.40;2.08;;;;;;;12.66;81.36;101742.13;2067906;28;20555;-69
2022/10/17 04:08:32;;;;;;;6.03;2.20;;;;;;;12.66;81.34;101744.03;2061037;28;20039;-67
2022/10/17 04:09:42;;;;;;;15.05;1.92;;;;;;;12.67;81.30;101742.94;2059326;28;20039;-67
2022/10/17 04:10:53;;;;;;;2.40;1.67;;;;;;;12.66;81.38;101744.81;2071003;28;20045;-68
2022/10/17 04:11:57;;;;;;;4.50;1.70;;;;;;;12.67;81.25;101741.06;2072759;28;20053;-67
2022/10/17 04:13:01;;;;;;;5.65;1.60;;;;;;;12.67;81.20;101751.88;2063986;28;20046;-68
2022/10/17 04:14:02;;;;;;;5.20;1.63;;;;;;;12.67;81.24;101742.94;2060370;28;20046;-67
2022/10/17 04:15:11;;;;;;;6.72;1.80;;;;;;;12.66;81.15;101741.31;2067861;28;20097;-67
2022/10/17 04:16:15;;;;;;;6.68;1.83;;;;;;;12.66;81.24;101738.63;2067532;28;20061;-68
2022/10/17 04:17:26;;;;;;;3.38;1.63;;;;;;;12.65;81.12;101737.00;2060992;28;20112;-67
2022/10/17 04:18:33;;;;;;;2.97;1.65;;;;;;;12.66;81.18;101744.81;2066081;28;20733;-68
2022/10/17 04:19:36;;;;;;;5.93;1.77;;;;;;;12.64;81.50;101741.59;2071534;28;20471;-69
2022/10/17 04:20:39;;;;;;;3.60;1.90;;;;;;;12.64;81.03;101749.69;2070811;28;20060;-68
2022/10/17 04:21:44;;;;;;;5.93;2.00;;;;;;;12.65;81.11;101753.19;2063774;28;20042;-68
2022/10/17 04:22:53;;;;;;;2.78;1.60;;;;;;;12.65;81.11;101748.59;2062694;28;20046;-67
2022/10/17 04:24:01;;;;;;;9.50;2.05;;;;;;;12.63;80.78;101752.63;2055859;28;20046;-66
2022/10/17 04:25:26;;;;;;;4.50;1.75;;;;;;;12.63;80.91;101747.25;2067459;28;20057;-67
2022/10/17 04:26:29;;;;;;;4.57;1.70;;;;;;;12.58;80.85;101747.22;2066800;28;20042;-67
2022/10/17 04:27:32;;;;;;;4.80;1.70;;;;;;;12.56;80.91;101744.78;2062308;28;20046;-67
2022/10/17 04:28:37;;;;;;;6.35;1.77;;;;;;;12.55;80.92;101737.78;2063652;28;20077;-67
2022/10/17 04:29:43;;;;;;;6.30;2.03;;;;;;;12.56;81.04;101744.78;2063134;28;20065;-67
2022/10/17 04:31:06;;;;;;;5.97;1.65;;;;;;;12.52;80.93;101744.50;2064969;28;20038;-67
2022/10/17 04:32:19;;;;;;;3.85;2.17;;;;;;;12.53;81.11;101748.81;2065238;28;20521;-66
2022/10/17 04:33:30;;;;;;;4.30;1.73;;;;;;;12.53;81.17;101745.31;2060053;28;20858;-66
2022/10/17 04:34:36;;;;;;;5.30;2.35;;;;;;;12.49;80.85;101750.41;2063534;28;20524;-67
2022/10/17 04:35:38;;;;;;;5.65;1.95;;;;;;;12.49;80.77;101744.22;2048159;28;20054;-67
2022/10/17 04:36:50;;;;;;;6.30;2.30;;;;;;;12.48;80.90;101746.09;2055365;28;20506;-67
2022/10/17 04:37:53;;;;;;;4.30;2.00;;;;;;;12.48;80.83;101742.56;2060779;28;20049;-67
2022/10/17 04:39:04;;;;;;;2.83;1.52;;;;;;;12.48;80.83;101745.28;2063441;28;20370;-66
2022/10/17 04:40:10;;;;;;;6.22;1.80;;;;;;;12.48;80.84;101750.66;2047897;28;20039;-67
2022/10/17 04:41:24;;;;;;;5.63;2.10;;;;;;;12.46;80.88;101742.03;2053101;28;20051;-67
2022/10/17 04:42:28;;;;;;;4.72;1.60;;;;;;;12.46;80.96;101747.44;2061637;28;20710;-66
2022/10/17 04:43:35;;;;;;;9.07;1.85;;;;;;;12.44;80.90;101753.06;2070275;28;20054;-67
2022/10/17 04:44:37;;;;;;;5.32;1.70;;;;;;;12.46;80.98;101756.34;2062457;28;20046;-69
2022/10/17 04:45:39;;;;;;;5.78;1.45;;;;;;;12.47;80.89;101762.53;2054673;28;20054;-69
2022/10/17 04:46:42;;;;;;;2.58;1.70;;;;;;;12.48;80.87;101758.75;2054788;28;20045;-72
2022/10/17 04:47:49;;;;;;;4.97;1.90;;;;;;;12.49;81.21;101755.81;2062824;28;20050;-73
2022/10/17 04:48:54;;;;;;;3.83;2.05;;;;;;;12.51;81.16;101759.06;2063469;28;20073;-70
2022/10/17 04:50:02;;;;;;;4.35;1.90;;;;;;;12.52;81.10;101754.50;2053714;28;20035;-72
2022/10/17 04:51:16;;;;;;;4.18;1.65;;;;;;;12.52;81.09;101757.19;2056471;28;20043;-70
2022/10/17 04:52:38;;;;;;;4.18;2.10;;;;;;;12.52;81.17;101751.78;2057947;28;20053;-72
2022/10/17 04:53:46;;;;;;;2.90;1.75;;;;;;;12.51;81.18;101752.84;2055465;28;20402;-76
2022/10/17 04:54:54;;;;;;;5.07;1.88;;;;;;;12.53;81.55;101758.81;2063050;28;20644;-70
2022/10/17 04:55:56;;;;;;;9.40;2.15;;;;;;;12.56;81.26;101763.66;2062396;28;20042;-67
2022/10/17 04:57:00;;;;;;;5.10;1.83;;;;;;;12.58;81.22;101768.78;2054381;28;20487;-69
2022/10/17 04:58:07;;;;;;;4.75;2.00;;;;;;;12.58;81.34;101768.78;2055107;28;20051;-70
2022/10/17 04:59:15;;;;;;;4.80;2.22;;;;;;;12.58;81.33;101766.94;2049635;28;20046;-69
2022/10/17 05:00:20;;;;;;;5.40;2.00;;;;;;;12.62;81.38;101767.22;2071621;28;20436;-69
2022/10/17 05:01:49;;;;;;;4.18;1.92;;;;;;;12.60;81.37;101763.97;2068648;28;20518;-69
2022/10/17 05:02:57;;;;;;;3.95;1.88;;;;;;;12.61;81.34;101763.72;2063048;28;20030;-69
2022/10/17 05:04:00;;;;;;;5.53;2.20;;;;;;;12.61;81.31;101769.09;2054042;28;20070;-69
2022/10/17 05:05:03;;;;;;;3.63;2.03;;;;;;;12.62;81.29;101765.31;2055700;28;20038;-69
2022/10/17 05:06:13;;;;;;;6.38;1.80;;;;;;;12.65;81.31;101769.38;2071457;28;20052;-71
2022/10/17 05:07:21;;;;;;;5.72;1.88;;;;;;;12.68;81.38;101763.47;2064825;28;20039;-71
2022/10/17 05:08:47;;;;;;;4.00;2.00;;;;;;;12.69;81.35;101765.88;2072082;28;20044;-71
2022/10/17 05:09:50;;;;;;;7.13;2.00;;;;;;;12.72;81.40;101768.06;2063121;28;20430;-71
2022/10/17 05:10:57;;;;;;;7.65;1.98;;;;;;;12.72;81.34;101765.38;2063452;28;20565;-72
2022/10/17 05:12:02;;;;;;;3.08;1.80;;;;;;;12.72;81.23;101768.06;2071714;28;20064;-72
2022/10/17 05:13:12;;;;;;;3.25;1.90;;;;;;;12.72;81.18;101765.38;2063471;28;20030;-72
2022/10/17 05:14:17;;;;;;;6.18;2.17;;;;;;;12.76;81.19;101771.03;2066350;28;20057;-72
2022/10/17 05:15:20;;;;;;;11.23;2.20;;;;;;;12.76;81.17;101769.16;2080104;28;20048;-72
2022/10/17 05:16:24;;;;;;;3.60;2.00;;;;;;;12.76;80.97;101774.53;2071968;28;20042;-72
2022/10/17 05:17:29;;;;;;;5.70;2.08;;;;;;;12.78;80.98;101774.31;2080118;28;20037;-72
2022/10/17 05:18:37;;;;;;;6.18;2.25;;;;;;;12.80;81.20;101776.72;2080977;28;20037;-72
2022/10/17 05:19:45;;;;;;;7.20;2.47;;;;;;;12.81;81.18;101781.06;2065379;28;20046;-73
2022/10/17 05:20:50;;;;;;;7.55;2.70;;;;;;;12.80;81.55;101787.50;2066551;28;20049;-73
2022/10/17 05:21:55;;;;;;;6.53;1.90;;;;;;;12.83;81.23;101776.19;2072224;28;20042;-72
2022/10/17 05:23:01;;;;;;;4.93;2.20;;;;;;;12.83;81.06;101770.78;2071999;28;20042;-72
2022/10/17 05:24:13;;;;;;;4.45;2.05;;;;;;;12.83;81.20;101777.03;2083441;28;20056;-73
2022/10/17 05:25:15;;;;;;;4.00;2.08;;;;;;;12.85;81.09;101771.34;2071257;28;20045;-73
2022/10/17 05:26:18;;;;;;;5.20;2.20;;;;;;;12.84;81.13;101767.84;2071705;28;20049;-72
2022/10/17 05:27:20;;;;;;;7.43;2.42;;;;;;;12.86;81.17;101776.50;2077125;28;20037;-72
2022/10/17 05:28:28;;;;;;;5.70;2.10;;;;;;;12.87;81.18;101771.91;2063723;28;20039;-72